Terminal Aerodrome Forecast
Issued by NWS

Home | Current Version | Previous Version | Text Only | Print | Product List | Glossary On
Versions: 1 2 3 4 5 6 7 8 9 10 11 12 13 14 15 16 17 18 19 20 21 22 23 24 25 26 27 28
747
FTUS43 KDLH 272340
TAFBRD
TAF
KBRD 272340Z 2800/2824 06008KT P6SM -RA FEW009 SCT045 OVC100
     FM280200 06004KT 4SM -SHRA SCT010 OVC035
     FM280600 VRB02KT 2SM BR OVC004
     FM281400 VRB03KT 4SM BR OVC007
     FM281700 VRB03KT P6SM SCT040 BKN120=

USA.gov is the U.S. government's official web portal to all federal, state and local government web resources and services.